createdAt,value
2018-02-15T00:01:49.470Z,25.13
2018-02-15T00:04:16.818Z,25.57
2018-02-15T00:06:44.182Z,24.33
2018-02-15T00:09:11.567Z,24.27
2018-02-15T00:11:38.897Z,24.60
2018-02-15T00:14:06.266Z,24.23
2018-02-15T00:16:33.602Z,24.63
2018-02-15T00:19:00.981Z,22.90
2018-02-15T00:21:28.350Z,24.47
2018-02-15T00:23:55.741Z,25.87
2018-02-15T00:26:23.086Z,23.47
2018-02-15T00:28:50.429Z,24.37
2018-02-15T00:31:17.784Z,23.47
2018-02-15T00:33:45.132Z,23.83
2018-02-15T00:36:12.502Z,24.27
2018-02-15T00:38:39.849Z,23.47
2018-02-15T00:41:07.210Z,23.30
2018-02-15T00:43:34.569Z,22.40
2018-02-15T00:46:01.960Z,24.77
2018-02-15T00:48:29.314Z,24.33
2018-02-15T00:50:56.769Z,22.60
2018-02-15T00:53:24.131Z,22.17
2018-02-15T00:55:51.470Z,23.47
2018-02-15T00:58:18.838Z,22.57
2018-02-15T01:00:46.172Z,24.83
2018-02-15T01:03:13.539Z,23.70
2018-02-15T01:05:40.879Z,23.67
2018-02-15T01:08:08.261Z,23.57
2018-02-15T01:10:35.594Z,24.03
2018-02-15T01:13:02.966Z,23.87
2018-02-15T01:15:30.325Z,24.77
2018-02-15T01:17:57.700Z,23.63
2018-02-15T01:20:25.129Z,21.50
2018-02-15T01:22:52.466Z,21.00
2018-02-15T01:25:19.830Z,23.30
2018-02-15T01:27:47.171Z,22.93
2018-02-15T01:30:14.547Z,21.30
2018-02-15T01:32:41.880Z,21.30
2018-02-15T01:35:09.242Z,19.63
2018-02-15T01:37:36.581Z,21.33
2018-02-15T01:40:03.955Z,21.87
2018-02-15T01:42:31.294Z,20.00
2018-02-15T01:44:58.659Z,22.80
2018-02-15T01:47:26.011Z,20.43
2018-02-15T01:49:59.217Z,21.87
2018-02-15T01:52:26.563Z,21.53
2018-02-15T01:54:53.897Z,19.93
2018-02-15T01:57:21.258Z,21.23
2018-02-15T01:59:48.665Z,20.80
2018-02-15T02:02:16.034Z,21.17
2018-02-15T02:04:43.373Z,21.83
2018-02-15T02:07:10.742Z,21.10
2018-02-15T02:09:38.093Z,20.50
2018-02-15T02:12:05.454Z,19.33
2018-02-15T02:14:32.811Z,19.90
2018-02-15T02:17:00.183Z,19.67
2018-02-15T02:19:27.643Z,19.10
2018-02-15T02:21:55.019Z,18.40
2018-02-15T02:24:22.387Z,19.20
2018-02-15T02:26:49.896Z,17.00
2018-02-15T02:29:17.266Z,17.17
2018-02-15T02:31:44.610Z,17.67
2018-02-15T02:34:11.981Z,17.47
2018-02-15T02:36:39.356Z,17.47
2018-02-15T02:39:06.731Z,18.43
2018-02-15T02:41:34.067Z,16.87
2018-02-15T02:44:01.806Z,16.90
2018-02-15T02:46:29.170Z,18.37
2018-02-15T02:48:56.547Z,15.03
2018-02-15T02:51:23.931Z,16.23
2018-02-15T02:53:51.266Z,17.53
2018-02-15T02:56:18.726Z,16.33
2018-02-15T02:58:46.072Z,15.47
2018-02-15T03:01:13.405Z,16.03
2018-02-15T03:03:40.775Z,14.87
2018-02-15T03:06:08.114Z,15.70
2018-02-15T03:08:35.517Z,16.30
2018-02-15T03:11:02.866Z,15.30
2018-02-15T03:13:30.250Z,14.93
2018-02-15T03:15:57.588Z,15.33
2018-02-15T03:18:24.934Z,14.90
2018-02-15T03:20:52.312Z,14.70
2018-02-15T03:23:19.730Z,14.70
2018-02-15T03:25:47.094Z,15.70
2018-02-15T03:28:14.447Z,13.70
2018-02-15T03:30:41.828Z,14.40
2018-02-15T03:33:09.252Z,14.53
2018-02-15T03:35:36.634Z,13.40
2018-02-15T03:38:03.979Z,14.27
2018-02-15T03:40:31.353Z,15.13
2018-02-15T03:42:58.700Z,14.83
2018-02-15T03:45:26.092Z,14.73
2018-02-15T03:47:53.465Z,13.50
2018-02-15T03:50:20.808Z,15.17
2018-02-15T03:52:48.173Z,11.90
2018-02-15T03:55:15.526Z,13.50
2018-02-15T03:57:42.887Z,13.57
2018-02-15T04:00:10.239Z,14.80
2018-02-15T04:02:37.614Z,13.27
2018-02-15T04:05:04.958Z,15.20
2018-02-15T04:07:32.332Z,17.07
2018-02-15T04:09:59.676Z,20.63
2018-02-15T04:12:27.017Z,16.00
2018-02-15T04:14:54.385Z,18.50
2018-02-15T04:17:21.751Z,15.13
2018-02-15T04:19:49.142Z,13.73
2018-02-15T04:22:16.502Z,14.00
2018-02-15T04:24:43.872Z,13.53
2018-02-15T04:27:11.232Z,13.57
2018-02-15T04:29:38.616Z,14.80
2018-02-15T04:32:05.954Z,14.60
2018-02-15T04:34:33.429Z,14.30
2018-02-15T04:37:00.771Z,14.77
2018-02-15T04:39:28.115Z,12.67
2018-02-15T04:41:55.491Z,13.00
2018-02-15T04:44:22.835Z,12.67
2018-02-15T04:46:50.197Z,13.30
2018-02-15T04:49:17.554Z,13.10
2018-02-15T04:51:45.015Z,12.40
2018-02-15T04:54:12.362Z,13.27
2018-02-15T04:56:39.750Z,13.10
2018-02-15T04:59:07.086Z,13.33
2018-02-15T05:01:34.434Z,12.17
2018-02-15T05:04:02.790Z,14.10
2018-02-15T05:06:30.134Z,12.63
2018-02-15T05:08:57.631Z,12.70
2018-02-15T05:11:24.984Z,13.73
2018-02-15T05:13:52.357Z,12.60
2018-02-15T05:16:19.699Z,12.20
2018-02-15T05:18:47.099Z,12.23
2018-02-15T05:21:14.444Z,12.57
2018-02-15T05:23:41.836Z,12.33
2018-02-15T05:26:09.197Z,12.90
2018-02-15T05:28:36.554Z,11.97
2018-02-15T05:31:03.914Z,13.87
2018-02-15T05:33:31.264Z,13.20
2018-02-15T05:35:58.643Z,12.53
2018-02-15T05:38:25.979Z,12.77
2018-02-15T05:40:53.350Z,12.30
2018-02-15T05:43:20.718Z,12.93
2018-02-15T05:45:48.086Z,13.50
2018-02-15T05:48:15.438Z,13.53
2018-02-15T05:50:42.823Z,13.33
2018-02-15T05:53:10.165Z,13.60
2018-02-15T05:55:37.506Z,13.93
2018-02-15T05:58:04.870Z,12.50
2018-02-15T06:00:32.209Z,14.00
2018-02-15T06:02:59.570Z,13.40
2018-02-15T06:05:26.993Z,12.47
2018-02-15T06:07:54.452Z,11.80
2018-02-15T06:10:21.791Z,12.23
2018-02-15T06:12:49.197Z,13.60
2018-02-15T06:15:16.543Z,12.45
2018-02-15T06:17:43.888Z,12.90
2018-02-15T06:20:11.255Z,12.20
2018-02-15T06:22:38.592Z,11.70
2018-02-15T06:25:05.962Z,12.63
2018-02-15T06:27:33.320Z,12.83
2018-02-15T06:30:00.684Z,12.13
2018-02-15T06:32:28.047Z,12.00
2018-02-15T06:34:55.435Z,12.47
2018-02-15T06:37:22.781Z,10.83
2018-02-15T06:39:50.160Z,11.17
2018-02-15T06:42:17.512Z,12.67
2018-02-15T06:44:44.847Z,11.60
2018-02-15T06:47:12.217Z,11.07
2018-02-15T06:49:39.568Z,12.63
2018-02-15T06:52:06.927Z,12.20
2018-02-15T06:54:34.270Z,12.00
2018-02-15T06:57:01.655Z,12.97
2018-02-15T06:59:28.994Z,13.07
2018-02-15T07:01:56.457Z,13.40
2018-02-15T07:04:23.800Z,11.90
2018-02-15T07:06:51.192Z,11.00
2018-02-15T07:09:18.627Z,12.40
2018-02-15T07:11:46.184Z,12.33
2018-02-15T07:14:13.643Z,12.23
2018-02-15T07:16:40.995Z,24.20
2018-02-15T07:19:08.362Z,14.23
2018-02-15T07:21:35.708Z,11.53
2018-02-15T07:24:03.163Z,13.10
2018-02-15T07:26:30.505Z,13.20
2018-02-15T07:28:57.867Z,12.47
2018-02-15T07:31:25.215Z,12.10
2018-02-15T07:33:52.608Z,12.47
2018-02-15T07:36:19.942Z,12.40
2018-02-15T07:38:47.280Z,11.87
2018-02-15T07:41:14.666Z,10.83
2018-02-15T07:43:42.103Z,11.87
2018-02-15T07:46:09.479Z,10.67
2018-02-15T07:48:36.853Z,11.10
2018-02-15T07:51:04.219Z,11.93
2018-02-15T07:53:31.575Z,11.23
2018-02-15T07:55:58.952Z,10.70
2018-02-15T07:58:26.307Z,11.97
2018-02-15T08:00:53.686Z,11.73
2018-02-15T08:03:21.036Z,12.40
2018-02-15T08:05:48.376Z,11.27
2018-02-15T08:08:15.754Z,10.80
2018-02-15T08:10:43.088Z,11.30
2018-02-15T08:13:10.459Z,11.67
2018-02-15T08:15:37.809Z,10.40
2018-02-15T08:18:05.171Z,11.27
2018-02-15T08:20:32.509Z,12.37
2018-02-15T08:22:59.883Z,10.40
2018-02-15T08:25:27.222Z,11.57
2018-02-15T08:27:54.562Z,10.90
2018-02-15T08:30:21.932Z,10.10
2018-02-15T08:32:49.283Z,10.23
2018-02-15T08:35:16.670Z,10.60
2018-02-15T08:37:44.005Z,9.70
2018-02-15T08:40:11.364Z,8.73
2018-02-15T08:42:38.699Z,9.30
2018-02-15T08:45:06.059Z,9.00
2018-02-15T08:47:33.399Z,8.53
2018-02-15T08:50:00.775Z,8.70
2018-02-15T08:52:28.110Z,8.70
2018-02-15T08:54:55.442Z,8.37
2018-02-15T08:57:22.803Z,9.43
2018-02-15T08:59:50.141Z,8.50
2018-02-15T09:02:17.504Z,9.20
2018-02-15T09:04:44.846Z,8.50
2018-02-15T09:07:12.215Z,10.03
2018-02-15T09:09:39.552Z,9.50
2018-02-15T09:12:06.978Z,10.63
2018-02-15T09:14:34.318Z,8.77
2018-02-15T09:17:01.792Z,9.13
2018-02-15T09:19:29.125Z,9.70
2018-02-15T09:21:56.462Z,7.80
2018-02-15T09:24:23.830Z,9.50
2018-02-15T09:26:51.162Z,9.33
2018-02-15T09:29:18.532Z,10.00
2018-02-15T09:31:45.870Z,9.70
2018-02-15T09:34:13.250Z,9.00
2018-02-15T09:36:40.595Z,10.33
2018-02-15T09:39:07.958Z,10.93
2018-02-15T09:41:35.305Z,10.80
2018-02-15T09:44:03.282Z,11.23
2018-02-15T09:46:30.630Z,10.77
2018-02-15T09:48:58.005Z,10.40
2018-02-15T09:51:25.345Z,10.17
2018-02-15T09:53:52.688Z,10.90
2018-02-15T09:56:20.048Z,9.47
2018-02-15T09:58:47.390Z,10.20
2018-02-15T10:01:14.758Z,10.20
2018-02-15T10:03:42.098Z,10.17
2018-02-15T10:06:09.466Z,10.40
2018-02-15T10:08:36.801Z,10.33
2018-02-15T10:11:04.178Z,11.20
2018-02-15T10:13:31.514Z,8.97
2018-02-15T10:15:58.890Z,10.53
2018-02-15T10:18:26.234Z,10.03
2018-02-15T10:20:53.576Z,9.83
2018-02-15T10:23:20.987Z,10.53
2018-02-15T10:25:48.329Z,10.00
2018-02-15T10:28:15.702Z,9.40
2018-02-15T10:30:43.041Z,8.87
2018-02-15T10:33:10.426Z,10.10
2018-02-15T10:35:37.758Z,9.23
2018-02-15T10:38:05.094Z,9.80
2018-02-15T10:40:32.459Z,7.93
2018-02-15T10:42:59.805Z,10.90
2018-02-15T10:45:27.166Z,36.30
2018-02-15T10:47:54.511Z,10.70
2018-02-15T10:50:21.874Z,9.57
2018-02-15T10:52:49.211Z,8.97
2018-02-15T10:55:16.578Z,10.43
2018-02-15T10:57:43.917Z,7.77
2018-02-15T11:00:11.298Z,9.70
2018-02-15T11:02:38.653Z,8.67
2018-02-15T11:05:11.810Z,9.90
2018-02-15T11:07:39.172Z,9.90
2018-02-15T11:10:06.516Z,9.57
2018-02-15T11:12:33.876Z,9.20
2018-02-15T11:15:01.215Z,9.90
2018-02-15T11:17:28.582Z,10.67
2018-02-15T11:19:55.919Z,8.83
2018-02-15T11:22:23.282Z,9.80
2018-02-15T11:24:50.618Z,9.53
2018-02-15T11:27:18.006Z,10.33
2018-02-15T11:29:45.352Z,9.90
2018-02-15T11:32:12.699Z,10.40
2018-02-15T11:34:40.062Z,9.80
2018-02-15T11:37:07.410Z,10.30
2018-02-15T11:39:34.789Z,10.60
2018-02-15T11:42:02.127Z,10.47
2018-02-15T11:44:29.497Z,11.17
2018-02-15T11:46:56.845Z,10.70
2018-02-15T11:49:24.211Z,10.37
2018-02-15T11:51:51.550Z,10.87
2018-02-15T11:54:18.921Z,11.57
2018-02-15T11:56:46.264Z,9.60
2018-02-15T11:59:13.617Z,10.00
2018-02-15T12:01:41.001Z,11.03
2018-02-15T12:04:08.348Z,11.23
2018-02-15T12:06:35.724Z,12.30
2018-02-15T12:09:03.067Z,11.03
2018-02-15T12:11:30.459Z,11.90
2018-02-15T12:13:57.888Z,10.90
2018-02-15T12:16:25.251Z,11.10
2018-02-15T12:18:52.586Z,9.80
2018-02-15T12:21:19.954Z,11.50
2018-02-15T12:23:47.297Z,11.17
2018-02-15T12:26:14.635Z,11.40
2018-02-15T12:28:42.003Z,10.20
2018-02-15T12:31:09.352Z,10.63
2018-02-15T12:33:36.737Z,11.33
2018-02-15T12:36:04.072Z,11.10
2018-02-15T12:38:31.446Z,11.70
2018-02-15T12:40:58.903Z,12.17
2018-02-15T12:43:26.271Z,11.20
2018-02-15T12:45:53.613Z,10.90
2018-02-15T12:48:20.963Z,10.80
2018-02-15T12:50:48.415Z,11.90
2018-02-15T12:53:15.764Z,11.97
2018-02-15T12:55:43.127Z,10.13
2018-02-15T12:58:10.469Z,12.20
2018-02-15T13:00:37.846Z,10.27
2018-02-15T13:03:05.193Z,10.17
2018-02-15T13:05:32.558Z,10.73
2018-02-15T13:07:59.923Z,12.10
2018-02-15T13:10:27.284Z,12.17
2018-02-15T13:13:09.519Z,11.30
2018-02-15T13:15:42.942Z,12.63
2018-02-15T13:18:10.285Z,11.30
2018-02-15T13:20:37.623Z,11.70
2018-02-15T13:23:05.010Z,11.80
2018-02-15T13:25:32.379Z,11.90
2018-02-15T13:28:05.514Z,11.90
2018-02-15T13:30:32.862Z,12.60
2018-02-15T13:33:00.238Z,12.07
2018-02-15T13:35:27.580Z,13.30
2018-02-15T13:37:54.950Z,10.20
2018-02-15T13:40:22.314Z,10.43
2018-02-15T13:42:49.656Z,11.87
2018-02-15T13:45:17.032Z,11.77
2018-02-15T13:47:44.369Z,12.00
2018-02-15T13:50:11.734Z,12.50
2018-02-15T13:52:39.084Z,11.60
2018-02-15T13:55:06.457Z,13.40
2018-02-15T13:57:33.805Z,11.47
2018-02-15T14:00:01.183Z,10.60
2018-02-15T14:02:28.531Z,11.77
2018-02-15T14:04:55.901Z,12.00
2018-02-15T14:07:23.243Z,11.40
2018-02-15T14:09:50.605Z,11.80
2018-02-15T14:12:17.952Z,11.67
2018-02-15T14:14:45.411Z,12.20
2018-02-15T14:17:12.760Z,12.60
2018-02-15T14:19:40.130Z,12.30
2018-02-15T14:22:07.467Z,11.23
2018-02-15T14:24:34.930Z,44.70
2018-02-15T14:27:02.271Z,20.07
2018-02-15T14:29:29.615Z,25.57
2018-02-15T14:31:56.985Z,12.67
2018-02-15T14:34:24.336Z,11.37
2018-02-15T14:36:51.703Z,11.60
2018-02-15T14:39:19.039Z,11.50
2018-02-15T14:41:46.415Z,13.07
2018-02-15T14:44:13.763Z,11.27
2018-02-15T14:46:41.125Z,12.13
2018-02-15T14:49:08.489Z,13.73
2018-02-15T14:51:35.936Z,13.13
2018-02-15T14:54:03.326Z,13.17
2018-02-15T14:56:30.700Z,13.03
2018-02-15T14:58:58.047Z,12.07
2018-02-15T15:01:25.387Z,11.87
2018-02-15T15:03:52.749Z,12.50
2018-02-15T15:06:20.099Z,11.47
2018-02-15T15:08:47.471Z,11.50
2018-02-15T15:11:14.807Z,12.67
2018-02-15T15:13:42.207Z,12.40
2018-02-15T15:16:09.552Z,11.70
2018-02-15T15:18:36.930Z,12.33
2018-02-15T15:21:04.302Z,13.00
2018-02-15T15:23:31.644Z,12.00
2018-02-15T15:25:59.014Z,13.50
2018-02-15T15:28:26.357Z,12.50
2018-02-15T15:30:53.722Z,13.27
2018-02-15T15:33:21.072Z,13.30
2018-02-15T15:35:48.449Z,12.50
2018-02-15T15:38:15.787Z,13.30
2018-02-15T15:40:43.133Z,12.47
2018-02-15T15:43:10.501Z,15.27
2018-02-15T15:45:37.850Z,13.43
2018-02-15T15:48:05.214Z,13.13
2018-02-15T15:50:32.565Z,13.10
2018-02-15T15:52:59.925Z,12.67
2018-02-15T15:55:27.365Z,13.00
2018-02-15T15:57:54.730Z,11.77
2018-02-15T16:00:22.096Z,13.00
2018-02-15T16:02:49.476Z,13.03
2018-02-15T16:05:16.819Z,13.10
2018-02-15T16:07:44.191Z,12.07
2018-02-15T16:10:11.536Z,12.30
2018-02-15T16:12:38.882Z,13.27
2018-02-15T16:15:06.250Z,15.10
2018-02-15T16:17:33.591Z,17.60
2018-02-15T16:20:00.960Z,19.37
2018-02-15T16:22:28.306Z,12.90
2018-02-15T16:24:55.677Z,11.50
2018-02-15T16:27:23.023Z,11.57
2018-02-15T16:29:50.394Z,12.30
2018-02-15T16:32:17.734Z,12.13
2018-02-15T16:34:45.108Z,12.50
2018-02-15T16:37:12.447Z,11.90
2018-02-15T16:39:39.787Z,12.33
2018-02-15T16:42:07.152Z,11.97
2018-02-15T16:44:34.494Z,11.80
2018-02-15T16:47:01.854Z,11.77
2018-02-15T16:49:29.198Z,13.30
2018-02-15T16:51:56.567Z,11.53
2018-02-15T16:54:23.902Z,12.97
2018-02-15T16:56:51.274Z,13.07
2018-02-15T16:59:18.612Z,12.67
2018-02-15T17:01:45.978Z,12.20
2018-02-15T17:04:13.320Z,13.10
2018-02-15T17:06:40.728Z,13.50
2018-02-15T17:09:08.067Z,13.40
2018-02-15T17:11:35.413Z,12.47
2018-02-15T17:14:02.858Z,11.53
2018-02-15T17:16:30.199Z,13.07
2018-02-15T17:18:57.567Z,12.77
2018-02-15T17:21:24.918Z,12.67
2018-02-15T17:23:52.287Z,13.50
2018-02-15T17:26:19.618Z,13.03
2018-02-15T17:28:46.991Z,13.20
2018-02-15T17:31:14.376Z,13.10
2018-02-15T17:33:41.746Z,13.07
2018-02-15T17:36:09.084Z,14.70
2018-02-15T17:38:36.422Z,13.87
2018-02-15T17:41:03.849Z,13.50
2018-02-15T17:43:31.194Z,15.07
2018-02-15T17:45:58.561Z,13.97
2018-02-15T17:48:25.993Z,12.90
2018-02-15T17:50:53.374Z,14.70
2018-02-15T17:53:20.720Z,14.63
2018-02-15T17:55:48.076Z,13.67
2018-02-15T17:58:15.443Z,13.73
2018-02-15T18:00:42.789Z,13.43
2018-02-15T18:03:10.186Z,28.43
2018-02-15T18:05:37.533Z,13.77
2018-02-15T18:08:04.899Z,12.80
2018-02-15T18:10:32.280Z,13.07
2018-02-15T18:12:59.648Z,12.90
2018-02-15T18:15:26.993Z,15.30
2018-02-15T18:17:54.368Z,13.90
2018-02-15T18:20:21.707Z,13.67
2018-02-15T18:22:49.080Z,12.60
2018-02-15T18:25:16.423Z,13.37
2018-02-15T18:27:43.802Z,12.40
2018-02-15T18:30:11.151Z,13.93
2018-02-15T18:32:38.497Z,12.73
2018-02-15T18:35:05.876Z,12.87
2018-02-15T18:37:33.210Z,12.80
2018-02-15T18:40:00.577Z,13.10
2018-02-15T18:42:28.872Z,13.10
2018-02-15T18:44:57.222Z,12.10
2018-02-15T18:47:25.234Z,11.50
2018-02-15T18:49:53.288Z,13.27
2018-02-15T18:52:21.526Z,12.00
2018-02-15T18:54:49.426Z,13.37
2018-02-15T18:57:17.511Z,11.87
2018-02-15T18:59:45.578Z,12.90
2018-02-15T19:02:13.741Z,12.33
2018-02-15T19:04:42.146Z,13.10
2018-02-15T19:07:10.037Z,12.60
2018-02-15T19:09:38.472Z,14.27
2018-02-15T19:12:06.726Z,11.20
2018-02-15T19:14:34.976Z,12.67
2018-02-15T19:17:03.051Z,12.60
2018-02-15T19:19:30.899Z,13.20
2018-02-15T19:21:59.095Z,12.97
2018-02-15T19:24:27.102Z,12.13
2018-02-15T19:26:55.604Z,13.50
2018-02-15T19:29:23.574Z,12.50
2018-02-15T19:31:51.788Z,13.00
2018-02-15T19:34:19.902Z,12.00
2018-02-15T19:36:48.300Z,11.17
2018-02-15T19:39:16.791Z,10.80
2018-02-15T19:41:44.283Z,10.73
2018-02-15T19:44:11.652Z,11.57
2018-02-15T19:46:39.000Z,12.33
2018-02-15T19:49:06.362Z,10.50
2018-02-15T19:51:33.706Z,11.70
2018-02-15T19:54:01.075Z,11.83
2018-02-15T19:56:28.418Z,10.87
2018-02-15T19:58:55.803Z,11.27
2018-02-15T20:01:23.224Z,12.00
2018-02-15T20:03:50.568Z,10.83
2018-02-15T20:06:17.935Z,11.40
2018-02-15T20:08:45.293Z,12.67
2018-02-15T20:11:12.666Z,12.40
2018-02-15T20:13:40.004Z,11.33
2018-02-15T20:16:07.464Z,11.57
2018-02-15T20:18:34.814Z,11.50
2018-02-15T20:21:02.269Z,11.87
2018-02-15T20:23:29.614Z,14.30
2018-02-15T20:26:02.670Z,13.00
2018-02-15T20:28:30.016Z,13.87
2018-02-15T20:30:57.393Z,12.00
2018-02-15T20:33:24.735Z,13.83
2018-02-15T20:35:52.090Z,14.10
2018-02-15T20:38:25.310Z,13.70
2018-02-15T20:40:52.663Z,12.70
2018-02-15T20:43:20.035Z,14.30
2018-02-15T20:45:47.375Z,13.80
2018-02-15T20:48:14.738Z,13.80
2018-02-15T20:50:47.790Z,13.77
2018-02-15T20:53:20.862Z,13.40
2018-02-15T20:55:48.210Z,12.43
2018-02-15T20:58:15.582Z,13.50
2018-02-15T21:00:42.920Z,12.60
2018-02-15T21:03:10.291Z,13.90
2018-02-15T21:05:37.630Z,15.50
2018-02-15T21:08:05.003Z,15.83
2018-02-15T21:10:32.362Z,18.17
2018-02-15T21:12:59.707Z,19.87
2018-02-15T21:15:27.075Z,21.80
2018-02-15T21:17:54.405Z,20.53
2018-02-15T21:20:21.803Z,29.10
2018-02-15T21:22:49.147Z,20.33
2018-02-15T21:25:16.518Z,19.70
2018-02-15T21:27:44.097Z,17.10
2018-02-15T21:30:11.579Z,19.00
2018-02-15T21:32:38.987Z,20.70
2018-02-15T21:35:06.330Z,18.90
2018-02-15T21:37:33.700Z,19.13
2018-02-15T21:40:01.156Z,20.03
2018-02-15T21:42:28.527Z,20.83
2018-02-15T21:44:55.915Z,21.30
2018-02-15T21:47:23.275Z,22.67
2018-02-15T21:49:50.622Z,23.43
2018-02-15T21:52:17.998Z,23.40
2018-02-15T21:54:45.408Z,24.97
2018-02-15T21:57:12.758Z,33.20
2018-02-15T21:59:40.127Z,27.10
2018-02-15T22:02:07.476Z,25.20
2018-02-15T22:04:34.867Z,22.67
2018-02-15T22:07:02.223Z,24.20
2018-02-15T22:09:29.586Z,23.70
2018-02-15T22:11:56.926Z,23.77
2018-02-15T22:14:24.311Z,22.80
2018-02-15T22:16:51.670Z,26.10
2018-02-15T22:19:19.037Z,28.10
2018-02-15T22:21:46.378Z,26.07
2018-02-15T22:24:13.767Z,25.47
2018-02-15T22:26:41.274Z,24.20
2018-02-15T22:29:08.783Z,23.83
2018-02-15T22:31:36.346Z,22.47
2018-02-15T22:34:03.916Z,22.87
2018-02-15T22:36:31.363Z,22.83
2018-02-15T22:38:58.713Z,22.70
2018-02-15T22:41:26.169Z,21.60
2018-02-15T22:43:53.511Z,23.93
2018-02-15T22:46:21.853Z,20.90
2018-02-15T22:48:49.201Z,21.40
2018-02-15T22:51:16.565Z,22.23
2018-02-15T22:53:43.911Z,23.27
2018-02-15T22:56:11.246Z,22.47
2018-02-15T22:58:38.608Z,21.03
2018-02-15T23:01:05.953Z,22.50
2018-02-15T23:03:33.344Z,21.50
2018-02-15T23:06:00.742Z,21.07
2018-02-15T23:08:28.203Z,22.27
2018-02-15T23:10:55.554Z,21.63
2018-02-15T23:13:22.919Z,22.27
2018-02-15T23:15:50.259Z,23.20
2018-02-15T23:18:17.602Z,22.20
2018-02-15T23:20:45.013Z,21.70
2018-02-15T23:23:12.435Z,23.40
2018-02-15T23:25:39.796Z,25.17
2018-02-15T23:28:07.158Z,25.97
2018-02-15T23:30:34.530Z,23.03
2018-02-15T23:33:01.891Z,23.53
2018-02-15T23:35:29.250Z,24.83
2018-02-15T23:37:56.589Z,23.00
2018-02-15T23:40:23.992Z,22.70
2018-02-15T23:42:51.356Z,24.40
2018-02-15T23:45:18.693Z,24.93
2018-02-15T23:47:46.065Z,25.30
2018-02-15T23:50:13.419Z,22.40
2018-02-15T23:52:40.783Z,25.33
2018-02-15T23:55:08.139Z,22.63
2018-02-15T23:57:35.509Z,22.70
